McCall, ID

1:19 PM MDT on October 21, 2014 (GMT -0600)
McCall | Change Station
CLOSE
Current Station
Airport
Location: McCall,
Elevation: 5020 ft
Nearby Weather Stations

Elev 5020 ft 44.89 °N, 116.10 °W | Updated 6 minutes ago

Overcast
Overcast
42 °F
Feels Like 42 °F
N
0
Wind Variable Wind from North

Today
High -- | Low -- °F
--% Chance of Precip.
Yesterday
High -- | Low -- °F
Precip. -- in
8:07 AM 6:49 PM
Waning Crescent, 4% visible
Pressure 29.99 in
Visibility 10.0 miles
Clouds Few 1200 ft
Scattered Clouds 2500 ft
Overcast 3600 ft
Dew Point 39 °F
Humidity 89%
Rainfall 0.29 in
Snow Depth 0 in , 0 in , 1 in
UV 1 out of 12
Pollen .40 out of 12
Air Quality Not available.
Flu Activity Sporadic
SPECI KMYL 211913Z AUTO 00000KT 10SM FEW012 SCT025 OVC036 06/04 A2999 RMK AO2 RAE08 P0001 T00560039

More Conditions Fewer Conditions

Pressure 29.99 in
Visibility 10.0 miles
Clouds Few 1200 ft
Scattered Clouds 2500 ft
Overcast 3600 ft
Dew Point 39 °F
Humidity 89%
Rainfall 0.29 in
Snow Depth 0 in , 0 in , 1 in
UV 1 out of 12
Pollen .40 out of 12
Air Quality Not available.
Flu Activity Sporadic
SPECI KMYL 211913Z AUTO 00000KT 10SM FEW012 SCT025 OVC036 06/04 A2999 RMK AO2 RAE08 P0001 T00560039

More Conditions Fewer Conditions

10-Day Weather Forecast

Almanac

Astronomy

Oct. 21, 2014 Rise Set
Actual Time 8:07 AM MDT 6:49 PM MDT
Civil Twilight 7:38 AM MDT 7:19 PM MDT
Nautical Twilight 7:03 AM MDT 7:53 PM MDT
Astronomical Twilight 6:30 AM MDT 8:27 PM MDT
Moon 5:51 AM MDT 5:50 PM MDT
Length of Visible Light 11h 41m
Length of Day
10h 41m
Tomorrow will be 2m 57s shorter.
Waning Crescent, 4% of the Moon is Illuminated
Today
Waning Crescent
Oct 23
New
Oct 30
First Quarter
Nov 6
Full
Nov 14
Last Quarter

Today's Extremes

State Highs State Lows

Community

WunderPhotos

Upload Photos

1,763,746 photos uploaded!

Nearby

Snow Depth

Station Depth Elevation
Bear Basin 0 in 5350 ft
Long Valley 0 in 4890 ft
Squaw Flat 1 in 6240 ft
Secesh Summit 0 in 6520 ft
Big Creek Summit 0 in 6580 ft

Earthquake Activity

City Distance Mag. Time & Date
No recent earthquake activity has been reported nearby.
Minimum magnitude displayed is 2.5.

Coastal Water Temperatures

Place Temperature
No Stations Reporting

Nearby Weather Stations